createdAt,value
2017-12-04T00:01:26.365Z,22.80
2017-12-04T00:03:54.495Z,22.70
2017-12-04T00:06:23.292Z,22.80
2017-12-04T00:08:52.199Z,22.70
2017-12-04T00:11:20.339Z,22.70
2017-12-04T00:13:48.395Z,22.70
2017-12-04T00:16:16.666Z,22.70
2017-12-04T00:18:44.739Z,22.70
2017-12-04T00:21:12.806Z,22.80
2017-12-04T00:23:40.983Z,22.80
2017-12-04T00:26:09.055Z,22.80
2017-12-04T00:28:37.109Z,22.70
2017-12-04T00:31:05.288Z,22.70
2017-12-04T00:33:33.302Z,22.70
2017-12-04T00:36:01.359Z,22.60
2017-12-04T00:38:29.542Z,22.60
2017-12-04T00:40:57.583Z,22.60
2017-12-04T00:43:25.603Z,22.60
2017-12-04T00:45:53.904Z,22.60
2017-12-04T00:48:22.967Z,22.70
2017-12-04T00:50:50.978Z,22.60
2017-12-04T00:53:19.103Z,22.60
2017-12-04T00:55:47.163Z,22.70
2017-12-04T00:58:15.235Z,22.70
2017-12-04T01:00:43.643Z,22.60
2017-12-04T01:03:11.837Z,22.50
2017-12-04T01:05:40.735Z,22.50
2017-12-04T01:08:09.742Z,22.40
2017-12-04T01:10:37.895Z,22.40
2017-12-04T01:13:06.661Z,22.30
2017-12-04T01:15:34.827Z,22.30
2017-12-04T01:18:02.966Z,22.40
2017-12-04T01:20:30.982Z,22.30
2017-12-04T01:22:59.120Z,22.30
2017-12-04T01:25:27.171Z,22.30
2017-12-04T01:27:55.187Z,22.30
2017-12-04T01:30:23.355Z,22.20
2017-12-04T01:32:51.416Z,22.20
2017-12-04T01:35:19.616Z,22.10
2017-12-04T01:37:47.766Z,22.10
2017-12-04T01:40:15.869Z,22.10
2017-12-04T01:42:43.936Z,22.00
2017-12-04T01:45:12.154Z,22.00
2017-12-04T01:47:40.927Z,22.00
2017-12-04T01:50:09.834Z,22.10
2017-12-04T01:52:38.912Z,22.00
2017-12-04T01:55:07.759Z,22.10
2017-12-04T01:57:35.806Z,22.00
2017-12-04T02:00:04.114Z,22.10
2017-12-04T02:02:32.247Z,22.10
2017-12-04T02:05:01.078Z,22.10
2017-12-04T02:07:29.326Z,22.10
2017-12-04T02:09:57.411Z,22.10
2017-12-04T02:12:25.567Z,22.20
2017-12-04T02:14:53.755Z,22.20
2017-12-04T02:17:21.775Z,22.20
2017-12-04T02:19:49.931Z,22.20
2017-12-04T02:22:18.355Z,22.20
2017-12-04T02:24:47.387Z,22.10
2017-12-04T02:27:15.623Z,22.10
2017-12-04T02:29:44.575Z,22.10
2017-12-04T02:32:12.623Z,22.10
2017-12-04T02:34:40.658Z,22.10
2017-12-04T02:37:08.686Z,22.10
2017-12-04T02:39:36.732Z,22.10
2017-12-04T02:42:05.024Z,22.00
2017-12-04T02:44:33.215Z,22.10
2017-12-04T02:47:01.344Z,22.10
2017-12-04T02:49:30.231Z,22.00
2017-12-04T02:51:59.188Z,22.00
2017-12-04T02:54:28.254Z,21.90
2017-12-04T02:56:56.531Z,21.90
2017-12-04T02:59:24.671Z,22.00
2017-12-04T03:01:53.468Z,22.10
2017-12-04T03:04:22.287Z,22.10
2017-12-04T03:06:50.453Z,22.10
2017-12-04T03:09:18.520Z,22.10
2017-12-04T03:11:46.596Z,22.20
2017-12-04T03:14:14.758Z,22.20
2017-12-04T03:16:56.590Z,22.30
2017-12-04T03:19:25.550Z,22.40
2017-12-04T03:21:54.727Z,22.50
2017-12-04T03:24:23.003Z,22.50
2017-12-04T03:26:51.404Z,22.70
2017-12-04T03:29:19.599Z,22.90
2017-12-04T03:31:47.721Z,23.20
2017-12-04T03:34:16.011Z,23.80
2017-12-04T03:36:44.231Z,24.60
2017-12-04T03:39:12.317Z,25.10
2017-12-04T03:41:40.680Z,25.60
2017-12-04T03:44:08.948Z,26.30
2017-12-04T03:46:36.987Z,26.80
2017-12-04T03:49:05.124Z,27.40
2017-12-04T03:51:33.315Z,28.00
2017-12-04T03:54:01.436Z,28.40
2017-12-04T03:56:29.582Z,28.40
2017-12-04T03:58:57.788Z,28.40
2017-12-04T04:01:26.587Z,26.90
2017-12-04T04:03:54.721Z,26.80
2017-12-04T04:06:22.747Z,26.30
2017-12-04T04:08:50.815Z,25.90
2017-12-04T04:11:18.995Z,25.70
2017-12-04T04:13:47.047Z,25.60
2017-12-04T04:16:15.819Z,25.40
2017-12-04T04:18:44.743Z,25.40
2017-12-04T04:21:12.783Z,25.40
2017-12-04T04:23:41.714Z,25.60
2017-12-04T04:26:09.883Z,25.60
2017-12-04T04:28:38.034Z,25.70
2017-12-04T04:31:06.888Z,25.40
2017-12-04T04:33:35.046Z,25.40
2017-12-04T04:36:03.155Z,25.50
2017-12-04T04:38:31.257Z,25.40
2017-12-04T04:41:00.228Z,25.40
2017-12-04T04:43:28.323Z,25.40
2017-12-04T04:45:57.167Z,25.70
2017-12-04T04:48:25.343Z,25.70
2017-12-04T04:50:53.587Z,25.50
2017-12-04T04:53:21.764Z,25.70
2017-12-04T04:55:49.974Z,25.80
2017-12-04T04:58:18.042Z,26.00
2017-12-04T05:00:46.132Z,26.00
2017-12-04T05:03:14.323Z,25.80
2017-12-04T05:05:43.119Z,26.10
2017-12-04T05:08:12.024Z,26.10
2017-12-04T05:10:40.980Z,26.20
2017-12-04T05:13:09.112Z,26.20
2017-12-04T05:15:37.229Z,26.20
2017-12-04T05:18:05.443Z,26.20
2017-12-04T05:20:33.775Z,26.20
2017-12-04T05:23:01.883Z,26.40
2017-12-04T05:25:30.944Z,26.70
2017-12-04T05:27:59.028Z,26.70
2017-12-04T05:30:27.099Z,26.70
2017-12-04T05:32:55.292Z,26.90
2017-12-04T05:35:24.135Z,26.50
2017-12-04T05:37:52.246Z,26.50
2017-12-04T05:40:21.184Z,26.80
2017-12-04T05:42:49.262Z,26.80
2017-12-04T05:45:17.491Z,26.80
2017-12-04T05:47:45.640Z,26.70
2017-12-04T05:50:13.698Z,26.70
2017-12-04T05:52:41.811Z,27.10
2017-12-04T05:55:09.985Z,27.20
2017-12-04T05:57:38.062Z,27.30
2017-12-04T06:00:06.857Z,27.40
2017-12-04T06:02:35.775Z,27.40
2017-12-04T06:05:03.856Z,27.30
2017-12-04T06:07:31.897Z,27.50
2017-12-04T06:10:00.827Z,27.60
2017-12-04T06:25:33.302Z,27.80
2017-12-04T06:28:01.331Z,27.80
2017-12-04T06:30:30.163Z,27.80
2017-12-04T06:32:58.463Z,27.80
2017-12-04T06:35:26.503Z,27.70
2017-12-04T06:37:54.564Z,27.70
2017-12-04T06:40:23.434Z,28.00
2017-12-04T06:42:51.458Z,28.00
2017-12-04T06:45:19.515Z,28.00
2017-12-04T06:47:47.852Z,28.10
2017-12-04T06:50:15.935Z,28.10
2017-12-04T06:52:44.747Z,28.30
2017-12-04T06:55:13.019Z,28.20
2017-12-04T06:57:41.847Z,28.30
2017-12-04T07:00:10.044Z,28.30
2017-12-04T07:02:38.188Z,28.20
2017-12-04T07:05:06.249Z,28.20
2017-12-04T07:07:34.314Z,28.40
2017-12-04T07:10:02.481Z,28.60
2017-12-04T07:12:31.395Z,28.80
2017-12-04T07:14:59.452Z,28.80
2017-12-04T07:17:27.584Z,28.60
2017-12-04T07:19:55.659Z,28.70
2017-12-04T07:22:23.724Z,28.50
2017-12-04T07:24:51.872Z,28.60
2017-12-04T07:27:20.079Z,28.70
2017-12-04T07:29:48.139Z,28.60
2017-12-04T07:32:16.312Z,28.70
2017-12-04T07:34:44.352Z,28.70
2017-12-04T07:37:12.378Z,28.90
2017-12-04T07:39:40.586Z,29.00
2017-12-04T07:42:08.647Z,29.00
2017-12-04T07:44:37.422Z,29.10
2017-12-04T07:47:05.647Z,29.10
2017-12-04T07:49:33.712Z,29.10
2017-12-04T07:52:01.771Z,29.10
2017-12-04T07:54:29.988Z,29.20
2017-12-04T07:56:58.043Z,29.20
2017-12-04T07:59:26.118Z,29.10
2017-12-04T08:01:54.275Z,29.20
2017-12-04T08:04:22.451Z,29.40
2017-12-04T08:06:50.673Z,29.30
2017-12-04T08:09:19.024Z,29.30
2017-12-04T08:11:47.131Z,29.40
2017-12-04T08:14:15.159Z,29.50
2017-12-04T08:16:43.458Z,29.60
2017-12-04T08:19:12.312Z,29.40
2017-12-04T08:21:40.487Z,29.40
2017-12-04T08:24:09.519Z,29.50
2017-12-04T08:26:37.875Z,29.50
2017-12-04T08:29:05.940Z,29.70
2017-12-04T08:31:34.108Z,29.40
2017-12-04T08:34:02.875Z,29.50
2017-12-04T08:36:30.886Z,29.50
2017-12-04T08:38:59.027Z,29.50
2017-12-04T08:41:27.807Z,29.60
2017-12-04T08:43:55.987Z,29.60
2017-12-04T08:46:24.202Z,29.40
2017-12-04T08:48:52.218Z,29.00
2017-12-04T08:51:20.235Z,29.30
2017-12-04T08:53:48.408Z,29.30
2017-12-04T08:56:16.455Z,29.50
2017-12-04T08:58:45.251Z,29.60
2017-12-04T09:01:14.155Z,29.70
2017-12-04T09:03:42.927Z,29.50
2017-12-04T09:06:10.951Z,29.40
2017-12-04T09:08:39.200Z,29.40
2017-12-04T09:11:07.267Z,29.50
2017-12-04T09:13:36.199Z,29.70
2017-12-04T09:16:04.431Z,29.70
2017-12-04T09:18:33.279Z,29.60
2017-12-04T09:21:01.491Z,29.60
2017-12-04T09:23:30.524Z,29.70
2017-12-04T09:25:58.749Z,29.70
2017-12-04T09:28:26.868Z,29.70
2017-12-04T09:30:55.087Z,29.50
2017-12-04T09:33:23.147Z,29.60
2017-12-04T09:35:51.200Z,29.70
2017-12-04T09:38:19.372Z,29.60
2017-12-04T09:40:47.448Z,29.50
2017-12-04T09:43:15.495Z,29.60
2017-12-04T09:45:43.731Z,29.60
2017-12-04T09:48:11.787Z,29.50
2017-12-04T09:50:39.867Z,29.50
2017-12-04T09:53:08.039Z,29.50
2017-12-04T09:55:36.180Z,29.30
2017-12-04T09:58:04.250Z,29.30
2017-12-04T10:00:32.695Z,29.20
2017-12-04T10:03:00.756Z,29.10
2017-12-04T10:05:28.845Z,29.20
2017-12-04T10:07:57.756Z,29.00
2017-12-04T10:10:26.604Z,28.90
2017-12-04T10:12:54.659Z,28.90
2017-12-04T10:15:23.024Z,29.00
2017-12-04T10:17:51.168Z,28.90
2017-12-04T10:20:19.979Z,28.90
2017-12-04T10:22:48.139Z,28.90
2017-12-04T10:25:16.931Z,28.90
2017-12-04T10:27:45.069Z,28.90
2017-12-04T10:30:13.283Z,28.90
2017-12-04T10:32:42.227Z,28.70
2017-12-04T10:35:10.295Z,28.70
2017-12-04T10:37:38.528Z,28.70
2017-12-04T10:40:06.608Z,28.70
2017-12-04T10:42:34.702Z,28.60
2017-12-04T10:45:02.890Z,28.60
2017-12-04T10:47:31.111Z,28.50
2017-12-04T10:49:59.956Z,28.60
2017-12-04T10:52:28.175Z,28.50
2017-12-04T10:54:56.956Z,28.50
2017-12-04T10:57:25.886Z,28.50
2017-12-04T10:59:54.231Z,28.50
2017-12-04T11:02:23.283Z,28.40
2017-12-04T11:04:51.449Z,28.40
2017-12-04T11:07:19.659Z,28.40
2017-12-04T11:09:47.896Z,28.30
2017-12-04T11:12:15.964Z,28.30
2017-12-04T11:14:44.204Z,28.30
2017-12-04T11:17:13.151Z,28.20
2017-12-04T11:19:41.211Z,28.30
2017-12-04T11:22:09.512Z,28.20
2017-12-04T11:24:37.719Z,28.20
2017-12-04T11:27:05.831Z,28.20
2017-12-04T11:29:34.072Z,28.20
2017-12-04T11:32:02.244Z,28.10
2017-12-04T11:34:30.447Z,28.10
2017-12-04T11:36:59.416Z,28.00
2017-12-04T11:39:27.514Z,28.00
2017-12-04T11:41:56.331Z,27.90
2017-12-04T11:44:24.484Z,27.90
2017-12-04T11:46:52.530Z,27.90
2017-12-04T11:49:21.494Z,27.90
2017-12-04T11:51:49.710Z,27.90
2017-12-04T11:54:18.548Z,27.70
2017-12-04T11:56:46.582Z,27.60
2017-12-04T11:59:15.526Z,27.60
2017-12-04T12:01:43.587Z,27.60
2017-12-04T12:04:11.627Z,27.60
2017-12-04T12:06:39.779Z,27.60
2017-12-04T12:09:08.679Z,27.50
2017-12-04T12:11:37.498Z,27.40
2017-12-04T12:14:05.747Z,27.40
2017-12-04T12:16:34.655Z,27.40
2017-12-04T12:19:02.699Z,27.40
2017-12-04T12:21:30.856Z,27.40
2017-12-04T12:23:58.911Z,27.30
2017-12-04T12:26:27.079Z,27.30
2017-12-04T12:28:55.239Z,27.30
2017-12-04T12:31:23.319Z,27.40
2017-12-04T12:33:58.993Z,27.30
2017-12-04T12:36:30.092Z,27.10
2017-12-04T12:39:00.122Z,26.90
2017-12-04T12:41:28.183Z,26.90
2017-12-04T12:43:56.396Z,26.90
2017-12-04T12:46:24.456Z,26.90
2017-12-04T12:48:52.512Z,26.90
2017-12-04T12:51:20.663Z,26.90
2017-12-04T12:53:49.438Z,26.70
2017-12-04T12:56:17.952Z,26.70
2017-12-04T12:58:46.160Z,26.70
2017-12-04T13:01:14.211Z,26.70
2017-12-04T13:03:42.268Z,26.70
2017-12-04T13:06:10.404Z,26.60
2017-12-04T13:08:38.437Z,26.60
2017-12-04T13:11:06.466Z,26.50
2017-12-04T13:13:35.407Z,26.40
2017-12-04T13:16:03.495Z,26.40
2017-12-04T13:18:31.518Z,26.40
2017-12-04T13:21:00.411Z,26.30
2017-12-04T13:23:29.200Z,26.30
2017-12-04T13:25:57.996Z,26.30
2017-12-04T13:28:26.908Z,26.30
2017-12-04T13:30:55.077Z,26.20
2017-12-04T13:33:44.516Z,26.20
2017-12-04T13:36:24.207Z,26.10
2017-12-04T13:38:52.492Z,26.10
2017-12-04T13:41:20.539Z,26.10
2017-12-04T13:43:48.571Z,26.10
2017-12-04T13:46:16.748Z,26.00
2017-12-04T13:48:44.944Z,25.90
2017-12-04T13:51:13.727Z,25.90
2017-12-04T13:53:48.963Z,25.80
2017-12-04T13:56:18.188Z,25.80
2017-12-04T13:58:46.225Z,25.80
2017-12-04T14:01:14.475Z,25.80
2017-12-04T14:03:42.518Z,25.80
2017-12-04T14:06:10.535Z,25.80
2017-12-04T14:08:38.732Z,25.70
2017-12-04T14:11:06.771Z,25.80
2017-12-04T14:13:34.787Z,25.70
2017-12-04T14:16:03.695Z,25.60
2017-12-04T14:18:31.752Z,25.60
2017-12-04T14:21:00.555Z,25.60
2017-12-04T14:23:28.728Z,25.60
2017-12-04T14:25:56.779Z,25.60
2017-12-04T14:28:24.804Z,25.60
2017-12-04T14:30:53.006Z,25.50
2017-12-04T14:33:21.075Z,25.50
2017-12-04T14:35:49.136Z,25.40
2017-12-04T14:38:17.308Z,25.50
2017-12-04T14:40:45.523Z,25.40
2017-12-04T14:43:14.340Z,25.40
2017-12-04T14:45:42.548Z,25.40
2017-12-04T14:48:10.752Z,25.40
2017-12-04T14:50:39.063Z,25.30
2017-12-04T14:53:08.104Z,25.20
2017-12-04T14:55:36.411Z,25.20
2017-12-04T14:58:04.559Z,25.20
2017-12-04T15:00:32.867Z,25.20
2017-12-04T15:03:00.968Z,25.20
2017-12-04T15:05:29.272Z,25.10
2017-12-04T15:07:57.652Z,25.10
2017-12-04T15:10:25.852Z,25.20
2017-12-04T15:12:54.131Z,25.10
2017-12-04T15:15:22.556Z,25.10
2017-12-04T15:17:51.498Z,25.10
2017-12-04T15:20:20.604Z,25.10
2017-12-04T15:22:48.871Z,25.10
2017-12-04T15:25:17.168Z,25.10
2017-12-04T15:27:45.486Z,25.00
2017-12-04T15:30:13.928Z,24.90
2017-12-04T15:32:42.163Z,24.90
2017-12-04T15:35:10.345Z,24.90
2017-12-04T15:37:38.554Z,24.90
2017-12-04T15:40:06.674Z,24.90
2017-12-04T15:42:35.123Z,24.80
2017-12-04T15:45:03.460Z,24.90
2017-12-04T15:47:31.631Z,24.80
2017-12-04T15:49:59.858Z,24.80
2017-12-04T15:52:28.120Z,24.90
2017-12-04T15:54:56.211Z,24.80
2017-12-04T15:57:25.054Z,24.70
2017-12-04T15:59:53.355Z,24.70
2017-12-04T16:02:21.622Z,24.80
2017-12-04T16:04:49.724Z,24.70
2017-12-04T16:07:17.944Z,24.70
2017-12-04T16:09:46.147Z,24.70
2017-12-04T16:12:14.239Z,24.60
2017-12-04T16:14:42.476Z,24.70
2017-12-04T16:17:10.527Z,24.50
2017-12-04T16:19:39.343Z,24.50
2017-12-04T16:22:07.562Z,24.50
2017-12-04T16:24:35.630Z,24.60
2017-12-04T16:27:03.669Z,24.60
2017-12-04T16:29:31.936Z,24.50
2017-12-04T16:31:59.967Z,24.30
2017-12-04T16:34:28.902Z,24.30
2017-12-04T16:36:57.093Z,24.20
2017-12-04T16:39:25.172Z,24.20
2017-12-04T16:41:53.386Z,24.10
2017-12-04T16:44:22.455Z,24.10
2017-12-04T16:46:50.551Z,24.10
2017-12-04T16:49:18.600Z,24.10
2017-12-04T16:51:46.794Z,24.10
2017-12-04T16:54:14.831Z,24.00
2017-12-04T16:56:42.991Z,24.10
2017-12-04T16:59:12.260Z,24.00
2017-12-04T17:01:41.196Z,24.10
2017-12-04T17:04:09.282Z,24.10
2017-12-04T17:06:37.664Z,24.00
2017-12-04T17:09:07.339Z,24.00
2017-12-04T17:11:38.959Z,24.00
2017-12-04T17:14:07.171Z,23.90
2017-12-04T17:16:35.443Z,23.90
2017-12-04T17:19:03.664Z,23.80
2017-12-04T17:21:31.805Z,23.80
2017-12-04T17:23:59.843Z,23.80
2017-12-04T17:26:28.960Z,23.80
2017-12-04T17:28:57.228Z,23.80
2017-12-04T17:31:26.491Z,23.70
2017-12-04T17:33:54.763Z,23.70
2017-12-04T17:36:22.862Z,23.70
2017-12-04T17:38:50.967Z,23.60
2017-12-04T17:41:19.188Z,23.60
2017-12-04T17:43:47.231Z,23.70
2017-12-04T17:46:15.491Z,23.70
2017-12-04T17:48:43.779Z,23.60
2017-12-04T17:51:11.843Z,23.70
2017-12-04T17:53:39.992Z,23.70
2017-12-04T17:56:08.931Z,23.70
2017-12-04T17:58:37.000Z,23.70
2017-12-04T18:01:05.320Z,23.70
2017-12-04T18:03:33.648Z,23.60
2017-12-04T18:06:02.032Z,23.50
2017-12-04T18:08:30.279Z,23.50
2017-12-04T18:11:00.052Z,23.60
2017-12-04T18:13:28.291Z,23.50
2017-12-04T18:15:56.524Z,23.60
2017-12-04T18:18:24.843Z,23.60
2017-12-04T18:20:53.100Z,23.50
2017-12-04T18:23:22.099Z,23.40
2017-12-04T18:25:51.255Z,23.50
2017-12-04T18:28:19.558Z,23.40
2017-12-04T18:30:47.663Z,23.50
2017-12-04T18:33:15.999Z,23.50
2017-12-04T18:35:44.233Z,23.60
2017-12-04T18:38:12.463Z,23.60
2017-12-04T18:40:40.730Z,23.50
2017-12-04T18:43:08.923Z,23.50
2017-12-04T18:45:37.063Z,23.50
2017-12-04T18:48:05.555Z,23.50
2017-12-04T18:50:33.810Z,23.50
2017-12-04T18:53:01.883Z,23.40
2017-12-04T18:55:30.163Z,23.40
2017-12-04T18:57:58.768Z,23.40
2017-12-04T19:00:27.080Z,23.40
2017-12-04T19:02:56.037Z,23.40
2017-12-04T19:05:24.287Z,23.30
2017-12-04T19:07:52.523Z,23.40
2017-12-04T19:10:21.711Z,23.30
2017-12-04T19:12:50.008Z,23.20
2017-12-04T19:15:19.048Z,23.30
2017-12-04T19:17:47.411Z,23.30
2017-12-04T19:20:15.632Z,23.30
2017-12-04T19:22:43.799Z,23.30
2017-12-04T19:25:12.099Z,23.20
2017-12-04T19:27:40.363Z,23.20
2017-12-04T19:30:08.567Z,23.20
2017-12-04T19:32:37.710Z,23.20
2017-12-04T19:35:05.936Z,23.20
2017-12-04T19:37:34.924Z,23.20
2017-12-04T19:40:03.942Z,23.00
2017-12-04T19:42:32.159Z,23.00
2017-12-04T19:45:00.351Z,23.10
2017-12-04T19:47:28.751Z,23.10
2017-12-04T19:49:57.787Z,23.10
2017-12-04T19:52:25.939Z,23.10
2017-12-04T19:54:55.015Z,23.10
2017-12-04T19:57:23.190Z,23.10
2017-12-04T19:59:51.443Z,23.10
2017-12-04T20:02:19.679Z,23.10
2017-12-04T20:04:47.787Z,23.10
2017-12-04T20:07:16.023Z,23.00
2017-12-04T20:09:44.278Z,23.00
2017-12-04T20:12:13.187Z,22.90
2017-12-04T20:14:42.189Z,22.90
2017-12-04T20:17:10.559Z,22.90
2017-12-04T20:19:39.611Z,22.90
2017-12-04T20:22:07.928Z,22.90
2017-12-04T20:24:37.092Z,22.90
2017-12-04T20:27:05.247Z,22.90
2017-12-04T20:29:33.623Z,22.90
2017-12-04T20:32:01.962Z,22.90
2017-12-04T20:34:30.857Z,22.90
2017-12-04T20:36:59.899Z,22.90
2017-12-04T20:39:28.206Z,22.80
2017-12-04T20:41:56.386Z,22.90
2017-12-04T20:44:24.531Z,22.90
2017-12-04T20:46:52.940Z,22.80
2017-12-04T20:49:21.184Z,22.80
2017-12-04T20:51:49.503Z,22.80
2017-12-04T20:54:18.511Z,22.70
2017-12-04T20:56:47.360Z,22.70
2017-12-04T20:59:15.527Z,22.70
2017-12-04T21:01:43.752Z,22.70
2017-12-04T21:04:12.752Z,22.60
2017-12-04T21:06:41.600Z,22.60
2017-12-04T21:09:21.236Z,22.60
2017-12-04T21:11:50.460Z,22.60
2017-12-04T21:14:30.009Z,22.60
2017-12-04T21:17:09.376Z,22.60
2017-12-04T21:19:37.776Z,22.60
2017-12-04T21:22:06.087Z,22.60
2017-12-04T21:24:34.267Z,22.50
2017-12-04T21:27:02.569Z,22.50
2017-12-04T21:29:31.668Z,22.40
2017-12-04T21:32:00.768Z,22.50
2017-12-04T21:34:29.875Z,22.50
2017-12-04T21:36:58.835Z,22.50
2017-12-04T21:39:27.071Z,22.50
2017-12-04T21:41:55.540Z,22.50
2017-12-04T21:44:23.808Z,22.50
2017-12-04T21:46:51.987Z,22.40
2017-12-04T21:49:20.403Z,22.40
2017-12-04T21:51:48.720Z,22.40
2017-12-04T21:54:17.984Z,22.30
2017-12-04T21:56:46.423Z,22.30
2017-12-04T21:59:14.783Z,22.20
2017-12-04T22:01:43.633Z,22.10
2017-12-04T22:04:11.924Z,22.10
2017-12-04T22:06:40.163Z,22.10
2017-12-04T22:09:08.451Z,22.10
2017-12-04T22:11:36.814Z,22.20
2017-12-04T22:14:05.136Z,22.20
2017-12-04T22:16:33.403Z,22.20
2017-12-04T22:19:01.865Z,22.20
2017-12-04T22:21:30.195Z,22.20
2017-12-04T22:23:58.412Z,22.10
2017-12-04T22:26:26.652Z,22.10
2017-12-04T22:28:55.635Z,22.00
2017-12-04T22:31:23.823Z,22.00
2017-12-04T22:33:52.083Z,21.90
2017-12-04T22:36:20.256Z,21.90
2017-12-04T22:38:48.480Z,21.90
2017-12-04T22:41:16.883Z,21.80
2017-12-04T22:43:45.088Z,21.80
2017-12-04T22:46:13.255Z,21.90
2017-12-04T22:48:41.511Z,21.80
2017-12-04T22:51:09.676Z,21.80
2017-12-04T22:53:37.892Z,21.80
2017-12-04T22:56:06.539Z,21.80
2017-12-04T22:58:34.735Z,21.80
2017-12-04T23:01:02.800Z,21.70
2017-12-04T23:03:31.103Z,21.80
2017-12-04T23:05:59.305Z,21.70
2017-12-04T23:08:28.216Z,21.70
2017-12-04T23:10:56.840Z,21.70
2017-12-04T23:13:25.035Z,21.70
2017-12-04T23:15:53.339Z,21.80
2017-12-04T23:18:22.508Z,21.60
2017-12-04T23:20:50.703Z,21.60
2017-12-04T23:23:19.012Z,21.60
2017-12-04T23:25:47.243Z,21.60
2017-12-04T23:28:15.552Z,21.60
2017-12-04T23:30:44.507Z,21.60
2017-12-04T23:33:12.811Z,21.60
2017-12-04T23:35:41.112Z,21.60
2017-12-04T23:38:09.963Z,21.60
2017-12-04T23:40:38.260Z,21.60
2017-12-04T23:43:07.053Z,21.60
2017-12-04T23:45:35.946Z,21.50
2017-12-04T23:48:04.822Z,21.50
2017-12-04T23:50:32.891Z,21.40
2017-12-04T23:53:00.906Z,21.50
2017-12-04T23:55:29.061Z,21.40
2017-12-04T23:57:58.115Z,21.40
